GCRR

Lanzarote Airport

Lanzarote Island, Spain
METAR GCRR 231430Z 09009KT 9999 FEW040 SCT049 20/16 Q1017
Observed Flight Rules
May-23 @ 14:30 UTC (34 minutes ago) Visual Flight Rules
Wind Visibility Clouds
90° at 9 knots 10,000+ meters
  • Few at 4,000' AGL
  • Scattered at 4,900' AGL
Temperatures Readings
Current 20°C / 68°F
Dewpoint 16°C / 61°F
Humidity 78%
Altimeter 30.03" Hg
Pressure 1017 hPa
Elevation 40
METAR GCRR 231430Z 09009KT 9999 FEW040 SCT049 20/16 Q1017
Observed Flight Rules
May-23 @ 14:30 UTC
(34 minutes ago)
VFR
Wind Visibility
90° at 9 knots 10,000+ meters
Clouds
  • Few at 4,000' AGL
  • Scattered at 4,900' AGL
Temperature Dewpoint
20°C / 68°F 16°C / 61°F
Humidity Altimeter Pressure
78% 30.03" Hg 1017 hPa